Time;durP1;ratioP1;P1;durP2;ratioP2;P2;SDS_P1;SDS_P2;PMS_P1;PMS_P2;Temp;Humidity;BMP_temperature;BMP_pressure;BME280_temperature;BME280_humidity;BME280_pressure;Samples;Min_cycle;Max_cycle;Signal;HPM_P1;HPM_P2
2023/08/07 00:01:25;;;;;;;2.17;1.02;;;;;;;;;;5017338;28;20038;-64
2023/08/07 00:03:50;;;;;;;0.98;0.98;;;;;;;;;;5016563;28;20030;-62
2023/08/07 00:06:15;;;;;;;1.20;1.00;;;;;;;;;;5033735;28;20434;-63
2023/08/07 00:08:41;;;;;;;1.73;1.27;;;;;;;;;;5047918;28;20033;-63
2023/08/07 00:11:07;;;;;;;2.83;1.30;;;;;;;;;;5056540;28;20040;-62
2023/08/07 00:13:32;;;;;;;6.20;1.30;;;;;;;;;;5042925;28;20071;-63
2023/08/07 00:19:00;;;;;;;2.42;1.15;;;;;;;;;;4857164;22;20059;-64
2023/08/07 00:21:27;;;;;;;2.60;1.15;;;;;;;;;;5067611;22;20053;-64
2023/08/07 00:23:54;;;;;;;1.35;1.25;;;;;;;;;;5056541;28;20021;-65
2023/08/07 00:26:20;;;;;;;2.15;1.50;;;;;;;;;;5056395;28;20061;-66
2023/08/07 00:28:46;;;;;;;1.55;1.17;;;;;;;;;;5021966;28;20106;-63
2023/08/07 00:31:12;;;;;;;1.10;1.10;;;;;;;;;;5038430;28;20021;-63
2023/08/07 00:33:39;;;;;;;1.60;1.50;;;;;;;;;;5038406;28;20050;-63
2023/08/07 00:36:06;;;;;;;1.55;1.27;;;;;;;;;;5038248;28;20025;-65
2023/08/07 00:38:31;;;;;;;1.80;1.23;;;;;;;;;;5056729;28;20078;-66
2023/08/07 00:40:57;;;;;;;3.75;1.33;;;;;;;;;;5056399;28;20115;-66
2023/08/07 00:43:22;;;;;;;1.98;1.40;;;;;;;;;;5038186;28;20044;-61
2023/08/07 00:45:47;;;;;;;1.50;1.40;;;;;;;;;;5038210;28;20037;-65
2023/08/07 00:48:48;;;;;;;1.48;1.38;;;;;;;;;;5060313;22;20053;-65
2023/08/07 00:54:15;;;;;;;1.52;1.30;;;;;;;;;;5056416;23;19925;-64
2023/08/07 00:56:41;;;;;;;1.77;1.67;;;;;;;;;;5014511;28;20054;-61
2023/08/07 00:59:06;;;;;;;1.77;1.67;;;;;;;;;;5016381;28;20507;-61
2023/08/07 01:01:32;;;;;;;1.88;1.77;;;;;;;;;;5015977;28;20401;-66
2023/08/07 01:03:57;;;;;;;1.70;1.60;;;;;;;;;;5016589;28;20021;-66
2023/08/07 01:06:22;;;;;;;1.98;1.80;;;;;;;;;;4998319;28;20041;-66
2023/08/07 01:08:48;;;;;;;2.03;1.92;;;;;;;;;;5015858;28;20030;-63
2023/08/07 01:11:34;;;;;;;2.17;2.00;;;;;;;;;;5016019;28;20481;-63
2023/08/07 01:14:18;;;;;;;3.20;2.33;;;;;;;;;;4996813;28;20070;-63
2023/08/07 01:16:48;;;;;;;2.35;2.13;;;;;;;;;;4996881;28;20027;-63
2023/08/07 01:19:39;;;;;;;2.70;2.50;;;;;;;;;;4996278;28;20140;-63
2023/08/07 01:22:09;;;;;;;4.47;2.90;;;;;;;;;;4993512;28;20466;-63
2023/08/07 01:24:35;;;;;;;3.13;2.87;;;;;;;;;;4996247;28;20437;-63
2023/08/07 01:27:13;;;;;;;3.30;3.00;;;;;;;;;;4978603;28;20118;-63
2023/08/07 01:29:51;;;;;;;3.97;2.85;;;;;;;;;;4996456;28;20121;-63
2023/08/07 01:32:21;;;;;;;3.28;3.05;;;;;;;;;;4978462;28;20432;-63
2023/08/07 01:34:47;;;;;;;3.22;2.95;;;;;;;;;;4996547;28;20027;-63
2023/08/07 01:37:13;;;;;;;3.58;3.28;;;;;;;;;;4978367;28;20026;-63
2023/08/07 01:39:39;;;;;;;3.50;3.15;;;;;;;;;;4994833;28;20105;-65
2023/08/07 01:42:05;;;;;;;4.35;3.35;;;;;;;;;;4978233;28;20535;-66
2023/08/07 01:44:31;;;;;;;4.60;3.15;;;;;;;;;;4978191;28;20022;-66
2023/08/07 01:46:56;;;;;;;3.95;3.50;;;;;;;;;;4978517;28;20043;-63
2023/08/07 01:49:21;;;;;;;3.53;3.33;;;;;;;;;;4990061;28;20433;-59
2023/08/07 01:51:47;;;;;;;3.38;3.05;;;;;;;;;;4997503;28;20026;-59
2023/08/07 01:54:12;;;;;;;4.97;3.47;;;;;;;;;;5015343;28;20376;-59
2023/08/07 01:56:37;;;;;;;3.55;3.13;;;;;;;;;;5014915;28;20129;-59
2023/08/07 01:59:03;;;;;;;3.72;3.45;;;;;;;;;;4997410;28;20030;-59
2023/08/07 02:01:28;;;;;;;4.65;4.00;;;;;;;;;;4997244;28;20103;-59
2023/08/07 02:03:54;;;;;;;4.38;3.92;;;;;;;;;;4997288;28;20018;-59
2023/08/07 02:06:19;;;;;;;5.43;3.72;;;;;;;;;;4997264;28;20034;-60
2023/08/07 02:08:44;;;;;;;4.40;4.03;;;;;;;;;;4997155;28;20381;-60
2023/08/07 02:11:11;;;;;;;3.55;3.28;;;;;;;;;;4997332;28;20018;-60
2023/08/07 02:13:36;;;;;;;5.43;3.83;;;;;;;;;;5015033;28;20464;-59
2023/08/07 02:16:02;;;;;;;3.83;3.53;;;;;;;;;;4983830;28;20453;-59
2023/08/07 02:18:28;;;;;;;3.60;3.25;;;;;;;;;;4994821;28;20117;-62
2023/08/07 02:20:53;;;;;;;4.13;3.25;;;;;;;;;;4994684;28;20109;-64
2023/08/07 02:23:18;;;;;;;3.42;3.17;;;;;;;;;;4994778;28;20030;-64
2023/08/07 02:25:45;;;;;;;4.05;3.75;;;;;;;;;;4977470;28;20041;-63
2023/08/07 02:28:10;;;;;;;4.15;3.75;;;;;;;;;;4977415;28;20034;-63
2023/08/07 02:30:36;;;;;;;3.97;3.58;;;;;;;;;;4994664;28;20025;-63
2023/08/07 02:33:01;;;;;;;3.63;3.30;;;;;;;;;;4976883;28;20023;-63
2023/08/07 02:35:27;;;;;;;5.22;4.30;;;;;;;;;;5001606;28;20369;-63
2023/08/07 02:37:52;;;;;;;4.20;3.90;;;;;;;;;;4997461;28;20460;-63
2023/08/07 02:40:18;;;;;;;3.88;3.58;;;;;;;;;;4983325;28;20025;-63
2023/08/07 02:42:44;;;;;;;5.70;4.00;;;;;;;;;;4977210;28;20481;-64
2023/08/07 02:45:09;;;;;;;4.03;3.67;;;;;;;;;;4977149;28;20108;-63
2023/08/07 02:47:35;;;;;;;4.63;4.22;;;;;;;;;;4977194;28;20030;-63
2023/08/07 02:50:00;;;;;;;5.05;4.22;;;;;;;;;;4994434;28;20030;-61
2023/08/07 02:52:25;;;;;;;4.57;4.15;;;;;;;;;;5007758;28;20030;-61
2023/08/07 02:54:51;;;;;;;5.05;4.07;;;;;;;;;;4996357;28;20033;-61
2023/08/07 02:57:16;;;;;;;4.78;4.40;;;;;;;;;;5014305;28;20030;-61
2023/08/07 02:59:41;;;;;;;4.90;4.40;;;;;;;;;;4980272;28;20124;-61
2023/08/07 03:02:07;;;;;;;5.07;4.45;;;;;;;;;;5014029;28;20392;-60
2023/08/07 03:04:32;;;;;;;5.45;4.70;;;;;;;;;;5014207;28;20037;-59
2023/08/07 03:06:57;;;;;;;5.00;4.57;;;;;;;;;;5013930;28;20469;-59
2023/08/07 03:09:23;;;;;;;5.10;4.70;;;;;;;;;;4996180;28;20530;-59
2023/08/07 03:11:48;;;;;;;5.20;4.80;;;;;;;;;;5013487;28;20159;-59
2023/08/07 03:14:17;;;;;;;5.40;4.90;;;;;;;;;;5014555;28;20041;-61
2023/08/07 03:16:44;;;;;;;4.68;4.28;;;;;;;;;;4996384;28;20413;-59
2023/08/07 03:19:09;;;;;;;5.45;4.65;;;;;;;;;;5012699;28;20036;-59
2023/08/07 03:21:35;;;;;;;4.20;3.90;;;;;;;;;;5012719;28;20399;-59
2023/08/07 03:24:00;;;;;;;4.15;3.88;;;;;;;;;;5013742;28;20475;-59
2023/08/07 03:26:26;;;;;;;4.30;4.00;;;;;;;;;;4996800;28;20022;-59
2023/08/07 03:28:51;;;;;;;4.43;4.07;;;;;;;;;;5013856;28;20117;-59
2023/08/07 03:31:17;;;;;;;4.22;3.83;;;;;;;;;;4996088;28;20033;-59
2023/08/07 03:33:42;;;;;;;2.95;2.75;;;;;;;;;;4995529;28;20041;-59
2023/08/07 03:36:09;;;;;;;3.28;3.08;;;;;;;;;;4996352;28;20104;-59
2023/08/07 03:38:34;;;;;;;3.85;3.55;;;;;;;;;;4996772;28;20048;-60
2023/08/07 03:41:00;;;;;;;3.78;3.33;;;;;;;;;;4995956;28;20117;-59
2023/08/07 03:43:25;;;;;;;4.07;3.78;;;;;;;;;;5013666;28;20026;-59
2023/08/07 03:45:56;;;;;;;3.17;2.97;;;;;;;;;;4979833;28;20107;-59
2023/08/07 03:48:21;;;;;;;;;;;;;;;;;;5014577;28;20034;-59
2023/08/07 03:50:47;;;;;;;2.97;2.80;;;;;;;;;;4995402;28;19913;-60
2023/08/07 03:53:12;;;;;;;2.78;2.60;;;;;;;;;;4995753;28;20268;-63
2023/08/07 03:55:42;;;;;;;3.13;2.92;;;;;;;;;;5012058;28;20046;-63
2023/08/07 03:58:08;;;;;;;3.40;3.20;;;;;;;;;;4996158;28;20109;-63
2023/08/07 04:00:33;;;;;;;4.43;4.03;;;;;;;;;;4996149;28;20026;-64
2023/08/07 04:02:59;;;;;;;2.63;2.42;;;;;;;;;;4996537;28;20375;-64
2023/08/07 04:05:24;;;;;;;3.47;3.28;;;;;;;;;;5013711;28;20029;-64
2023/08/07 04:07:49;;;;;;;1.35;1.30;;;;;;;;;;5013228;28;20022;-63
2023/08/07 04:10:15;;;;;;;2.38;2.17;;;;;;;;;;4996381;28;20037;-62
2023/08/07 04:12:40;;;;;;;2.17;2.05;;;;;;;;;;4995755;28;20024;-61
2023/08/07 04:15:06;;;;;;;3.22;3.03;;;;;;;;;;4996228;28;20022;-61
2023/08/07 04:17:32;;;;;;;2.92;2.78;;;;;;;;;;5013154;28;20037;-61
2023/08/07 04:19:57;;;;;;;3.35;2.97;;;;;;;;;;5012983;28;20021;-61
2023/08/07 04:22:23;;;;;;;2.60;2.45;;;;;;;;;;4992213;28;20507;-61
2023/08/07 04:24:48;;;;;;;3.13;2.92;;;;;;;;;;4993876;28;20050;-60
2023/08/07 04:27:13;;;;;;;2.83;2.63;;;;;;;;;;4994830;28;20069;-61
2023/08/07 04:29:39;;;;;;;2.97;2.83;;;;;;;;;;4996590;28;20397;-61
2023/08/07 04:32:04;;;;;;;2.92;2.60;;;;;;;;;;4997010;28;20491;-60
2023/08/07 04:34:30;;;;;;;2.97;2.80;;;;;;;;;;4997043;28;20114;-61
2023/08/07 04:36:56;;;;;;;3.10;2.90;;;;;;;;;;4997233;28;20027;-61
2023/08/07 04:39:22;;;;;;;3.58;2.63;;;;;;;;;;4997075;28;20373;-61
2023/08/07 04:41:49;;;;;;;2.63;2.22;;;;;;;;;;4979678;28;20022;-61
2023/08/07 04:44:15;;;;;;;3.35;2.58;;;;;;;;;;4979621;28;20085;-61
2023/08/07 04:46:41;;;;;;;2.33;2.22;;;;;;;;;;4997086;28;20437;-61
2023/08/07 04:49:08;;;;;;;2.55;2.22;;;;;;;;;;4996937;28;20109;-61
2023/08/07 04:51:34;;;;;;;2.42;2.22;;;;;;;;;;4948754;28;20122;-61
2023/08/07 04:54:00;;;;;;;2.45;2.33;;;;;;;;;;4979087;28;20487;-59
2023/08/07 04:56:26;;;;;;;3.03;2.67;;;;;;;;;;5014383;28;20050;-60
2023/08/07 04:58:51;;;;;;;2.20;2.05;;;;;;;;;;5016201;28;20026;-60
2023/08/07 05:01:17;;;;;;;2.83;2.65;;;;;;;;;;5014620;28;20088;-59
2023/08/07 05:03:43;;;;;;;2.42;2.33;;;;;;;;;;5001604;28;20027;-59
2023/08/07 05:06:08;;;;;;;2.47;2.20;;;;;;;;;;4978958;28;20453;-59
2023/08/07 05:08:44;;;;;;;3.47;2.25;;;;;;;;;;5012255;28;20083;-58
2023/08/07 05:11:09;;;;;;;2.90;2.38;;;;;;;;;;5015493;28;20080;-59
2023/08/07 05:13:34;;;;;;;1.98;1.70;;;;;;;;;;5015509;28;20029;-59
2023/08/07 05:16:00;;;;;;;2.03;1.92;;;;;;;;;;5015500;28;20494;-59
2023/08/07 05:18:25;;;;;;;2.00;1.85;;;;;;;;;;5015307;28;20533;-59
2023/08/07 05:20:51;;;;;;;2.13;2.03;;;;;;;;;;4997297;28;20033;-59
2023/08/07 05:23:16;;;;;;;2.08;1.80;;;;;;;;;;5014861;28;20048;-58
2023/08/07 05:25:44;;;;;;;2.03;1.90;;;;;;;;;;4997615;28;20444;-59
2023/08/07 05:28:09;;;;;;;1.95;1.85;;;;;;;;;;4997364;28;20035;-59
2023/08/07 05:30:35;;;;;;;2.17;2.00;;;;;;;;;;5014444;28;20022;-59
2023/08/07 05:33:00;;;;;;;1.92;1.83;;;;;;;;;;5014459;28;20472;-59
2023/08/07 05:35:25;;;;;;;1.60;1.60;;;;;;;;;;5013978;28;20034;-59
2023/08/07 05:37:51;;;;;;;1.90;1.80;;;;;;;;;;5014087;28;20033;-57
2023/08/07 05:40:16;;;;;;;2.60;1.67;;;;;;;;;;5014124;28;20042;-57
2023/08/07 05:42:41;;;;;;;2.13;1.65;;;;;;;;;;5014032;28;20559;-56
2023/08/07 05:45:08;;;;;;;1.73;1.55;;;;;;;;;;5014672;28;20531;-56
2023/08/07 05:47:33;;;;;;;1.65;1.50;;;;;;;;;;4997436;28;20464;-56
2023/08/07 05:49:58;;;;;;;1.45;1.40;;;;;;;;;;5014778;28;20049;-56
2023/08/07 05:52:25;;;;;;;1.73;1.42;;;;;;;;;;5014780;28;20025;-56
2023/08/07 05:54:50;;;;;;;1.23;1.23;;;;;;;;;;5014667;28;20042;-56
2023/08/07 05:57:15;;;;;;;1.13;1.13;;;;;;;;;;5014568;28;20029;-56
2023/08/07 05:59:41;;;;;;;1.50;1.38;;;;;;;;;;5014995;28;20088;-57
2023/08/07 06:02:06;;;;;;;1.25;1.05;;;;;;;;;;5013727;28;20104;-57
2023/08/07 06:04:32;;;;;;;2.65;1.17;;;;;;;;;;5014578;28;20104;-56
2023/08/07 06:06:57;;;;;;;1.05;1.05;;;;;;;;;;5015441;28;20527;-57
2023/08/07 06:09:23;;;;;;;1.23;1.13;;;;;;;;;;5014561;28;20392;-56
2023/08/07 06:11:48;;;;;;;1.13;1.00;;;;;;;;;;5014436;28;20441;-56
2023/08/07 06:14:14;;;;;;;1.48;1.00;;;;;;;;;;5014376;28;20034;-56
2023/08/07 06:16:39;;;;;;;0.88;0.88;;;;;;;;;;5013009;28;20044;-56
2023/08/07 06:19:04;;;;;;;1.00;1.00;;;;;;;;;;5012425;28;20132;-56
2023/08/07 06:21:30;;;;;;;0.90;0.90;;;;;;;;;;5012376;28;20029;-56
2023/08/07 06:23:56;;;;;;;2.33;0.90;;;;;;;;;;5012334;28;20038;-57
2023/08/07 06:26:21;;;;;;;0.90;0.90;;;;;;;;;;5012444;28;20026;-57
2023/08/07 06:28:46;;;;;;;0.70;0.70;;;;;;;;;;5012498;28;20108;-56
2023/08/07 06:31:12;;;;;;;0.70;0.70;;;;;;;;;;5012263;28;20060;-57
2023/08/07 06:33:37;;;;;;;0.70;0.70;;;;;;;;;;5012222;28;20076;-56
2023/08/07 06:36:03;;;;;;;0.68;0.68;;;;;;;;;;5012488;28;20042;-56
2023/08/07 06:38:30;;;;;;;0.80;0.80;;;;;;;;;;5013795;28;20076;-57
2023/08/07 06:40:56;;;;;;;0.63;0.60;;;;;;;;;;5014062;28;20079;-57
2023/08/07 06:43:21;;;;;;;0.90;0.90;;;;;;;;;;5013907;28;20060;-56
2023/08/07 06:45:46;;;;;;;1.55;0.80;;;;;;;;;;5013631;28;20056;-56
2023/08/07 06:48:12;;;;;;;1.95;0.77;;;;;;;;;;4995787;28;20503;-57
2023/08/07 06:50:37;;;;;;;1.05;0.70;;;;;;;;;;5013898;28;20054;-57
2023/08/07 06:53:02;;;;;;;0.57;0.57;;;;;;;;;;5013718;28;20396;-57
2023/08/07 06:55:28;;;;;;;0.73;0.70;;;;;;;;;;5013652;28;20056;-56
2023/08/07 06:57:53;;;;;;;0.80;0.80;;;;;;;;;;5013800;28;20022;-57
2023/08/07 07:00:18;;;;;;;0.70;0.70;;;;;;;;;;5013739;28;20029;-57
2023/08/07 07:02:44;;;;;;;0.70;0.70;;;;;;;;;;5013606;28;20537;-56
2023/08/07 07:05:09;;;;;;;1.65;0.70;;;;;;;;;;5013738;28;20057;-57
2023/08/07 07:07:34;;;;;;;0.65;0.65;;;;;;;;;;5013616;28;20080;-57
2023/08/07 07:10:00;;;;;;;0.63;0.63;;;;;;;;;;5013490;28;20061;-57
2023/08/07 07:12:26;;;;;;;2.15;0.77;;;;;;;;;;5013611;28;20033;-56
2023/08/07 07:14:51;;;;;;;0.75;0.60;;;;;;;;;;5013602;28;20030;-57
2023/08/07 07:17:17;;;;;;;0.70;0.70;;;;;;;;;;5013553;28;20060;-56
2023/08/07 07:19:42;;;;;;;0.60;0.60;;;;;;;;;;5013504;28;20361;-56
2023/08/07 07:22:07;;;;;;;0.95;0.70;;;;;;;;;;5013596;28;20156;-57
2023/08/07 07:24:33;;;;;;;0.60;0.60;;;;;;;;;;4995952;28;20037;-56
2023/08/07 07:26:58;;;;;;;0.68;0.68;;;;;;;;;;5013487;28;20030;-56
2023/08/07 07:29:23;;;;;;;1.00;0.93;;;;;;;;;;5013280;28;20033;-56
2023/08/07 07:31:49;;;;;;;1.05;0.80;;;;;;;;;;5013454;28;20017;-56
2023/08/07 07:34:14;;;;;;;0.68;0.68;;;;;;;;;;5013416;28;20056;-56
2023/08/07 07:36:40;;;;;;;0.60;0.60;;;;;;;;;;5013319;28;20025;-56
2023/08/07 07:39:05;;;;;;;0.93;0.93;;;;;;;;;;5013365;28;20072;-56
2023/08/07 07:41:30;;;;;;;0.60;0.60;;;;;;;;;;5013262;28;20021;-56
2023/08/07 07:43:56;;;;;;;0.55;0.55;;;;;;;;;;5013270;28;20030;-56
2023/08/07 07:46:23;;;;;;;0.45;0.45;;;;;;;;;;5013213;28;20461;-56
2023/08/07 07:48:48;;;;;;;1.17;0.63;;;;;;;;;;4995567;28;20026;-56
2023/08/07 07:51:14;;;;;;;0.75;0.75;;;;;;;;;;4995719;28;20037;-56
2023/08/07 07:53:39;;;;;;;1.08;0.80;;;;;;;;;;5013296;28;20037;-57
2023/08/07 07:56:04;;;;;;;0.80;0.80;;;;;;;;;;5013015;28;20042;-56
2023/08/07 07:58:30;;;;;;;1.45;0.80;;;;;;;;;;5015019;28;20404;-56
2023/08/07 08:00:55;;;;;;;0.80;0.80;;;;;;;;;;4999436;28;20117;-57
2023/08/07 08:03:21;;;;;;;0.73;0.73;;;;;;;;;;5016755;28;20061;-56
2023/08/07 08:05:49;;;;;;;0.98;0.75;;;;;;;;;;5016905;28;20034;-56
2023/08/07 08:08:14;;;;;;;0.70;0.70;;;;;;;;;;5016680;28;20033;-56
2023/08/07 08:10:39;;;;;;;0.80;0.80;;;;;;;;;;4999452;28;20384;-56
2023/08/07 08:13:04;;;;;;;0.90;0.88;;;;;;;;;;5016818;28;20113;-56
2023/08/07 08:15:30;;;;;;;0.80;0.80;;;;;;;;;;5016641;28;20025;-56
2023/08/07 08:17:56;;;;;;;1.20;0.85;;;;;;;;;;5016691;28;20477;-56
2023/08/07 08:20:21;;;;;;;0.85;0.85;;;;;;;;;;5016719;28;20451;-56
2023/08/07 08:22:47;;;;;;;0.75;0.75;;;;;;;;;;5016486;28;20022;-56
2023/08/07 08:25:12;;;;;;;0.68;0.68;;;;;;;;;;5015261;28;20435;-56
2023/08/07 08:27:38;;;;;;;0.80;0.80;;;;;;;;;;5016421;28;20069;-56
2023/08/07 08:30:04;;;;;;;0.70;0.70;;;;;;;;;;5016367;28;20105;-56
2023/08/07 08:32:29;;;;;;;0.68;0.68;;;;;;;;;;5016287;28;20482;-56
2023/08/07 08:34:55;;;;;;;0.80;0.80;;;;;;;;;;5016467;28;20029;-56
2023/08/07 08:37:20;;;;;;;0.77;0.77;;;;;;;;;;5016217;28;20053;-56
2023/08/07 08:39:46;;;;;;;1.42;0.90;;;;;;;;;;5016231;28;20034;-56
2023/08/07 08:42:13;;;;;;;1.08;1.00;;;;;;;;;;4998640;28;20018;-56
2023/08/07 08:44:39;;;;;;;1.05;0.95;;;;;;;;;;5016087;28;20041;-56
2023/08/07 08:47:04;;;;;;;1.50;0.88;;;;;;;;;;5016042;28;20121;-56
2023/08/07 08:49:35;;;;;;;1.52;0.98;;;;;;;;;;5015950;28;20121;-56
2023/08/07 08:52:00;;;;;;;1.27;0.90;;;;;;;;;;5016068;28;20056;-56
2023/08/07 08:54:26;;;;;;;0.85;0.70;;;;;;;;;;5015825;28;20476;-56
2023/08/07 08:56:52;;;;;;;0.75;0.75;;;;;;;;;;5015901;28;20041;-56
2023/08/07 08:59:18;;;;;;;0.93;0.90;;;;;;;;;;5015904;28;20033;-56
2023/08/07 09:01:44;;;;;;;0.90;0.82;;;;;;;;;;5015727;28;20067;-56
2023/08/07 09:04:10;;;;;;;0.80;0.80;;;;;;;;;;5015843;28;20396;-56
2023/08/07 09:06:35;;;;;;;0.70;0.70;;;;;;;;;;5015662;28;20029;-56
2023/08/07 09:09:01;;;;;;;0.73;0.73;;;;;;;;;;5015121;28;20026;-57
2023/08/07 09:11:27;;;;;;;0.63;0.63;;;;;;;;;;5015241;28;20064;-56
2023/08/07 09:13:53;;;;;;;1.60;0.70;;;;;;;;;;5015576;28;20392;-56
2023/08/07 09:16:19;;;;;;;0.60;0.60;;;;;;;;;;5015496;28;20026;-56
2023/08/07 09:18:45;;;;;;;2.63;0.70;;;;;;;;;;5015459;28;20033;-56
2023/08/07 09:21:11;;;;;;;0.93;0.90;;;;;;;;;;5015423;28;20030;-56
2023/08/07 09:23:36;;;;;;;0.85;0.85;;;;;;;;;;5015363;28;20527;-56
2023/08/07 09:26:02;;;;;;;1.77;1.00;;;;;;;;;;4997745;28;20472;-57
2023/08/07 09:28:29;;;;;;;1.55;1.10;;;;;;;;;;5015186;28;20487;-56
2023/08/07 09:30:54;;;;;;;1.05;1.05;;;;;;;;;;5015274;28;20119;-57
2023/08/07 09:33:26;;;;;;;1.05;1.05;;;;;;;;;;5015150;28;20062;-56
2023/08/07 09:35:52;;;;;;;1.15;1.00;;;;;;;;;;5015150;28;20036;-60
2023/08/07 09:38:17;;;;;;;0.70;0.70;;;;;;;;;;5015127;28;20026;-60
2023/08/07 09:40:42;;;;;;;0.98;0.98;;;;;;;;;;5014996;28;20018;-60
2023/08/07 09:43:08;;;;;;;1.95;1.10;;;;;;;;;;5014991;28;20554;-60
2023/08/07 09:45:36;;;;;;;1.35;1.33;;;;;;;;;;5015036;28;20053;-60
2023/08/07 09:48:03;;;;;;;1.77;1.38;;;;;;;;;;4997431;28;20484;-60
2023/08/07 09:50:29;;;;;;;2.45;1.27;;;;;;;;;;5014863;28;20036;-60
2023/08/07 09:52:58;;;;;;;2.45;1.67;;;;;;;;;;5014793;28;20472;-60
2023/08/07 09:55:23;;;;;;;1.85;1.75;;;;;;;;;;5013384;28;20074;-60
2023/08/07 09:57:49;;;;;;;4.20;2.17;;;;;;;;;;5014727;28;20061;-60
2023/08/07 10:00:15;;;;;;;2.30;1.83;;;;;;;;;;5014657;28;20025;-60
2023/08/07 10:02:42;;;;;;;2.75;2.10;;;;;;;;;;5014651;28;20029;-60
2023/08/07 10:05:08;;;;;;;2.92;2.10;;;;;;;;;;5014648;28;20109;-60
2023/08/07 10:07:34;;;;;;;3.45;2.47;;;;;;;;;;5014620;28;20104;-60
2023/08/07 10:09:59;;;;;;;4.00;3.22;;;;;;;;;;5014385;28;20030;-60
2023/08/07 10:12:26;;;;;;;4.03;3.10;;;;;;;;;;5014455;28;20167;-60
2023/08/07 10:14:51;;;;;;;4.72;3.42;;;;;;;;;;5014481;28;20038;-57
2023/08/07 10:17:16;;;;;;;3.72;2.05;;;;;;;;;;5014362;28;20022;-56
2023/08/07 10:19:43;;;;;;;1.33;1.23;;;;;;;;;;5014288;28;20519;-56
2023/08/07 10:22:08;;;;;;;0.95;0.95;;;;;;;;;;5014308;28;20041;-57
2023/08/07 10:24:34;;;;;;;0.90;0.90;;;;;;;;;;5014264;28;20031;-56
2023/08/07 10:27:00;;;;;;;1.42;0.80;;;;;;;;;;5014213;28;20104;-56
2023/08/07 10:29:26;;;;;;;0.85;0.60;;;;;;;;;;5014116;28;20468;-57
2023/08/07 10:31:52;;;;;;;0.75;0.75;;;;;;;;;;5014183;28;20057;-56
2023/08/07 10:34:17;;;;;;;0.65;0.65;;;;;;;;;;5014121;28;20053;-56
2023/08/07 10:36:43;;;;;;;0.60;0.60;;;;;;;;;;5014044;28;20441;-56
2023/08/07 10:39:10;;;;;;;0.70;0.70;;;;;;;;;;5014097;28;20088;-57
2023/08/07 10:41:42;;;;;;;0.75;0.70;;;;;;;;;;5014028;28;20108;-56
2023/08/07 10:44:17;;;;;;;1.73;1.63;;;;;;;;;;5014062;28;20029;-56
2023/08/07 10:46:49;;;;;;;2.83;1.73;;;;;;;;;;5013868;28;20034;-56
2023/08/07 10:49:33;;;;;;;1.67;1.40;;;;;;;;;;5013831;28;20080;-56
2023/08/07 10:52:10;;;;;;;3.70;2.03;;;;;;;;;;5014089;28;20056;-56
2023/08/07 10:54:42;;;;;;;2.70;2.50;;;;;;;;;;5013688;28;20088;-57
2023/08/07 10:57:13;;;;;;;3.00;2.70;;;;;;;;;;4996184;28;20041;-56
2023/08/07 10:59:43;;;;;;;1.60;1.50;;;;;;;;;;5013757;28;20083;-56
2023/08/07 11:02:11;;;;;;;2.30;2.00;;;;;;;;;;5013804;28;20084;-56
2023/08/07 11:04:36;;;;;;;1.90;1.70;;;;;;;;;;5013710;28;20435;-57
2023/08/07 11:07:02;;;;;;;2.40;2.20;;;;;;;;;;4996149;28;20046;-56
2023/08/07 11:09:27;;;;;;;3.75;3.00;;;;;;;;;;5013623;28;20105;-57
2023/08/07 11:11:52;;;;;;;2.63;2.13;;;;;;;;;;4996057;28;20084;-56
2023/08/07 11:14:18;;;;;;;4.85;1.77;;;;;;;;;;5013651;28;20034;-56
2023/08/07 11:16:44;;;;;;;1.23;1.20;;;;;;;;;;5013535;28;20041;-56
2023/08/07 11:19:11;;;;;;;1.42;1.33;;;;;;;;;;5013560;28;20033;-56
2023/08/07 11:21:37;;;;;;;2.55;1.05;;;;;;;;;;4995969;28;20118;-56
2023/08/07 11:24:02;;;;;;;1.35;1.25;;;;;;;;;;4996229;28;20101;-56
2023/08/07 11:26:28;;;;;;;1.00;1.00;;;;;;;;;;5013450;28;20033;-56
2023/08/07 11:28:53;;;;;;;6.72;2.72;;;;;;;;;;5013394;28;20116;-56
2023/08/07 11:31:19;;;;;;;1.42;1.20;;;;;;;;;;5013688;28;20029;-56
2023/08/07 11:33:44;;;;;;;1.10;1.00;;;;;;;;;;5015825;28;20111;-56
2023/08/07 11:36:11;;;;;;;1.30;1.17;;;;;;;;;;5017414;28;20070;-56
2023/08/07 11:38:37;;;;;;;1.30;1.02;;;;;;;;;;4999760;28;20037;-56
2023/08/07 11:41:04;;;;;;;1.10;1.10;;;;;;;;;;5017239;28;20026;-56
2023/08/07 11:43:30;;;;;;;2.95;1.40;;;;;;;;;;4999846;28;20029;-56
2023/08/07 11:45:56;;;;;;;2.13;1.23;;;;;;;;;;5017343;28;20034;-56
2023/08/07 11:48:23;;;;;;;1.25;1.02;;;;;;;;;;5017002;28;20036;-56
2023/08/07 11:50:49;;;;;;;1.27;1.20;;;;;;;;;;5017319;28;20026;-56
2023/08/07 11:53:14;;;;;;;1.48;1.10;;;;;;;;;;5017170;28;20079;-56
2023/08/07 11:55:46;;;;;;;1.85;1.30;;;;;;;;;;5011565;28;20124;-56
2023/08/07 11:58:11;;;;;;;1.13;1.02;;;;;;;;;;5007943;28;20026;-56
2023/08/07 12:00:36;;;;;;;1.80;1.35;;;;;;;;;;5016454;28;20028;-56
2023/08/07 12:03:22;;;;;;;1.63;1.40;;;;;;;;;;5020553;28;20491;-56
2023/08/07 12:05:49;;;;;;;1.88;1.40;;;;;;;;;;5005832;28;20080;-56
2023/08/07 12:08:14;;;;;;;1.70;1.48;;;;;;;;;;5006675;28;20043;-56
2023/08/07 12:10:40;;;;;;;1.35;1.25;;;;;;;;;;5013464;28;20033;-56
2023/08/07 12:13:08;;;;;;;1.58;1.48;;;;;;;;;;4997946;28;20028;-56
2023/08/07 12:15:33;;;;;;;1.45;1.35;;;;;;;;;;4997332;28;20025;-56
2023/08/07 12:18:02;;;;;;;2.90;1.40;;;;;;;;;;4996464;28;20026;-56
2023/08/07 12:20:27;;;;;;;1.63;1.48;;;;;;;;;;4994908;28;20034;-56
2023/08/07 12:22:52;;;;;;;1.45;1.23;;;;;;;;;;4995641;28;20038;-56
2023/08/07 12:25:18;;;;;;;1.33;1.23;;;;;;;;;;4995721;28;20251;-56
2023/08/07 12:27:46;;;;;;;1.38;1.27;;;;;;;;;;4995641;28;20041;-56
2023/08/07 12:30:11;;;;;;;2.05;1.30;;;;;;;;;;4995519;28;20380;-56
2023/08/07 12:32:37;;;;;;;1.25;1.17;;;;;;;;;;4995217;28;20022;-56
2023/08/07 12:35:02;;;;;;;1.83;1.25;;;;;;;;;;4994813;28;20030;-56
2023/08/07 12:37:27;;;;;;;1.55;1.20;;;;;;;;;;4977237;28;20033;-56
2023/08/07 12:39:53;;;;;;;1.60;1.20;;;;;;;;;;4994891;28;20142;-56
2023/08/07 12:42:18;;;;;;;1.65;1.15;;;;;;;;;;4995243;28;20041;-56
2023/08/07 12:44:43;;;;;;;1.42;1.20;;;;;;;;;;4976807;28;20112;-56
2023/08/07 12:47:09;;;;;;;1.27;1.17;;;;;;;;;;4995495;28;20038;-56
2023/08/07 12:49:34;;;;;;;1.40;1.30;;;;;;;;;;4996003;28;20381;-56
2023/08/07 12:52:00;;;;;;;1.67;1.27;;;;;;;;;;4996197;28;20092;-56
2023/08/07 12:54:25;;;;;;;2.28;1.63;;;;;;;;;;4996903;28;20027;-56
2023/08/07 12:56:51;;;;;;;1.25;1.23;;;;;;;;;;4996945;28;20084;-56
2023/08/07 12:59:17;;;;;;;1.73;1.40;;;;;;;;;;4996570;28;20471;-56
2023/08/07 13:01:43;;;;;;;1.40;1.20;;;;;;;;;;4996785;28;20049;-56
2023/08/07 13:04:08;;;;;;;2.53;1.38;;;;;;;;;;4978989;28;20117;-56
2023/08/07 13:06:34;;;;;;;2.10;1.58;;;;;;;;;;4996356;28;20449;-56
2023/08/07 13:09:00;;;;;;;2.05;1.67;;;;;;;;;;4978474;28;20038;-56
2023/08/07 13:11:25;;;;;;;1.38;1.30;;;;;;;;;;4996037;28;20022;-56
2023/08/07 13:13:51;;;;;;;1.98;1.27;;;;;;;;;;4996083;28;20117;-56
2023/08/07 13:16:16;;;;;;;1.92;1.83;;;;;;;;;;4996062;28;20057;-56
2023/08/07 13:18:41;;;;;;;1.98;1.65;;;;;;;;;;4978471;28;20039;-56
2023/08/07 13:21:07;;;;;;;1.70;1.50;;;;;;;;;;4996062;28;20041;-56
2023/08/07 13:23:32;;;;;;;1.73;1.63;;;;;;;;;;4995675;28;20039;-56
2023/08/07 13:25:58;;;;;;;2.58;1.75;;;;;;;;;;4995754;28;20408;-56
2023/08/07 13:28:23;;;;;;;2.40;2.17;;;;;;;;;;5002306;28;20206;-56
2023/08/07 13:30:50;;;;;;;4.00;3.08;;;;;;;;;;5003540;28;20049;-60
2023/08/07 13:33:15;;;;;;;3.05;2.72;;;;;;;;;;5005310;28;20014;-60
2023/08/07 13:35:40;;;;;;;3.58;3.17;;;;;;;;;;5003915;28;20045;-60
2023/08/07 13:38:07;;;;;;;6.10;3.33;;;;;;;;;;5003763;28;20029;-60
2023/08/07 13:40:34;;;;;;;2.47;2.05;;;;;;;;;;5005129;28;20014;-60
2023/08/07 13:43:02;;;;;;;3.33;2.38;;;;;;;;;;5003514;28;20041;-56
2023/08/07 13:45:28;;;;;;;3.10;2.40;;;;;;;;;;5003510;28;20542;-59
2023/08/07 13:47:53;;;;;;;2.65;2.42;;;;;;;;;;5004889;28;20013;-56
2023/08/07 13:50:20;;;;;;;2.63;2.42;;;;;;;;;;5003279;28;20042;-60
2023/08/07 13:52:45;;;;;;;6.88;2.80;;;;;;;;;;4986138;28;20025;-60
2023/08/07 13:55:10;;;;;;;3.80;2.78;;;;;;;;;;5004503;28;20033;-56
2023/08/07 13:57:36;;;;;;;4.10;2.65;;;;;;;;;;5002712;28;20023;-56
2023/08/07 14:00:02;;;;;;;4.25;3.03;;;;;;;;;;5004189;28;20024;-56
2023/08/07 14:02:31;;;;;;;3.50;3.20;;;;;;;;;;5010856;28;20029;-56
2023/08/07 14:04:57;;;;;;;3.45;2.90;;;;;;;;;;5014794;28;20057;-56
2023/08/07 14:07:23;;;;;;;2.92;2.65;;;;;;;;;;5011913;28;20121;-60
2023/08/07 14:09:48;;;;;;;4.80;3.10;;;;;;;;;;5009426;28;20097;-56
2023/08/07 14:12:13;;;;;;;3.85;3.08;;;;;;;;;;5014304;28;20117;-60
2023/08/07 14:14:38;;;;;;;3.10;2.80;;;;;;;;;;5014264;28;20052;-56
2023/08/07 14:17:04;;;;;;;4.18;2.58;;;;;;;;;;4996736;28;20412;-56
2023/08/07 14:19:29;;;;;;;3.72;2.55;;;;;;;;;;5003370;28;20038;-56
2023/08/07 14:22:00;;;;;;;2.42;2.22;;;;;;;;;;5006566;28;20022;-56
2023/08/07 14:24:25;;;;;;;;;;;;;;;;;;4996299;28;20040;-60
2023/08/07 14:26:51;;;;;;;2.40;2.20;;;;;;;;;;5014699;28;19909;-56
2023/08/07 14:29:17;;;;;;;3.05;1.75;;;;;;;;;;5014217;28;20073;-56
2023/08/07 14:31:42;;;;;;;2.38;2.17;;;;;;;;;;5014216;28;20014;-56
2023/08/07 14:34:08;;;;;;;3.25;2.40;;;;;;;;;;5013291;28;20052;-56
2023/08/07 14:36:33;;;;;;;2.50;2.05;;;;;;;;;;5013495;28;20080;-60
2023/08/07 14:38:58;;;;;;;4.00;2.53;;;;;;;;;;5013292;28;20033;-60
2023/08/07 14:41:24;;;;;;;3.22;2.70;;;;;;;;;;5013322;28;20030;-60
2023/08/07 14:43:51;;;;;;;2.15;1.95;;;;;;;;;;5013099;28;20069;-61